sensor_id;sensor_type;location;lat;lon;timestamp;temperature;humidity
29687;DHT22;16599;47.078;15.536;2023-11-21T00:00:02;4.70;99.90
29687;DHT22;16599;47.078;15.536;2023-11-21T00:02:30;4.50;99.90
29687;DHT22;16599;47.078;15.536;2023-11-21T00:04:57;4.60;99.90
29687;DHT22;16599;47.078;15.536;2023-11-21T00:07:24;4.70;99.90
29687;DHT22;16599;47.078;15.536;2023-11-21T00:09:50;4.80;99.90
29687;DHT22;16599;47.078;15.536;2023-11-21T00:12:17;4.70;99.90
29687;DHT22;16599;47.078;15.536;2023-11-21T00:14:44;4.80;99.90
29687;DHT22;16599;47.078;15.536;2023-11-21T00:17:11;4.90;99.90
29687;DHT22;16599;47.078;15.536;2023-11-21T00:19:38;4.80;99.90
29687;DHT22;16599;47.078;15.536;2023-11-21T00:22:05;4.60;99.90
29687;DHT22;16599;47.078;15.536;2023-11-21T00:24:33;4.50;99.90
29687;DHT22;16599;47.078;15.536;2023-11-21T00:26:59;4.40;99.90
29687;DHT22;16599;47.078;15.536;2023-11-21T00:29:26;4.50;99.90
29687;DHT22;16599;47.078;15.536;2023-11-21T00:31:53;4.50;99.90
29687;DHT22;16599;47.078;15.536;2023-11-21T00:34:20;4.40;99.90
29687;DHT22;16599;47.078;15.536;2023-11-21T00:36:46;4.40;99.90
29687;DHT22;16599;47.078;15.536;2023-11-21T00:39:13;4.30;99.90
29687;DHT22;16599;47.078;15.536;2023-11-21T00:41:40;4.50;99.90
29687;DHT22;16599;47.078;15.536;2023-11-21T00:44:07;4.50;99.90
29687;DHT22;16599;47.078;15.536;2023-11-21T00:46:33;4.60;99.90
29687;DHT22;16599;47.078;15.536;2023-11-21T00:49:00;4.60;99.90
29687;DHT22;16599;47.078;15.536;2023-11-21T00:51:27;4.70;99.90
29687;DHT22;16599;47.078;15.536;2023-11-21T00:53:54;4.80;99.90
29687;DHT22;16599;47.078;15.536;2023-11-21T00:56:21;4.80;99.90
29687;DHT22;16599;47.078;15.536;2023-11-21T00:58:48;4.80;99.90
29687;DHT22;16599;47.078;15.536;2023-11-21T01:01:19;4.80;99.90
29687;DHT22;16599;47.078;15.536;2023-11-21T01:03:46;4.90;99.90
29687;DHT22;16599;47.078;15.536;2023-11-21T01:06:13;5.00;99.90
29687;DHT22;16599;47.078;15.536;2023-11-21T01:08:42;4.80;99.90
29687;DHT22;16599;47.078;15.536;2023-11-21T01:11:09;4.60;99.90
29687;DHT22;16599;47.078;15.536;2023-11-21T01:13:38;4.60;99.90
29687;DHT22;16599;47.078;15.536;2023-11-21T01:16:05;4.70;99.90
29687;DHT22;16599;47.078;15.536;2023-11-21T01:18:35;4.70;99.90
29687;DHT22;16599;47.078;15.536;2023-11-21T01:21:02;4.80;99.90
29687;DHT22;16599;47.078;15.536;2023-11-21T01:23:29;4.80;99.90
29687;DHT22;16599;47.078;15.536;2023-11-21T01:25:56;4.80;99.90
29687;DHT22;16599;47.078;15.536;2023-11-21T01:28:23;5.00;99.90
29687;DHT22;16599;47.078;15.536;2023-11-21T01:30:50;5.00;99.90
29687;DHT22;16599;47.078;15.536;2023-11-21T01:33:17;4.90;99.90
29687;DHT22;16599;47.078;15.536;2023-11-21T01:35:44;4.90;99.90
29687;DHT22;16599;47.078;15.536;2023-11-21T01:38:12;4.90;99.90
29687;DHT22;16599;47.078;15.536;2023-11-21T01:40:39;4.80;99.90
29687;DHT22;16599;47.078;15.536;2023-11-21T01:43:06;4.70;99.90
29687;DHT22;16599;47.078;15.536;2023-11-21T01:45:35;4.70;99.90
29687;DHT22;16599;47.078;15.536;2023-11-21T01:48:01;4.80;99.90
29687;DHT22;16599;47.078;15.536;2023-11-21T01:50:29;4.80;99.90
29687;DHT22;16599;47.078;15.536;2023-11-21T01:52:56;4.90;99.90
29687;DHT22;16599;47.078;15.536;2023-11-21T01:55:23;4.90;99.90
29687;DHT22;16599;47.078;15.536;2023-11-21T01:57:54;5.00;99.90
29687;DHT22;16599;47.078;15.536;2023-11-21T02:00:22;5.00;99.90
29687;DHT22;16599;47.078;15.536;2023-11-21T02:02:50;5.00;99.90
29687;DHT22;16599;47.078;15.536;2023-11-21T02:05:18;5.00;99.90
29687;DHT22;16599;47.078;15.536;2023-11-21T02:07:45;5.00;99.90
29687;DHT22;16599;47.078;15.536;2023-11-21T02:10:15;4.80;99.90
29687;DHT22;16599;47.078;15.536;2023-11-21T02:12:42;4.60;99.90
29687;DHT22;16599;47.078;15.536;2023-11-21T02:15:10;4.70;99.90
29687;DHT22;16599;47.078;15.536;2023-11-21T02:17:42;4.80;99.90
29687;DHT22;16599;47.078;15.536;2023-11-21T02:20:10;4.80;99.90
29687;DHT22;16599;47.078;15.536;2023-11-21T02:22:42;4.70;99.90
29687;DHT22;16599;47.078;15.536;2023-11-21T02:25:09;4.60;99.90
29687;DHT22;16599;47.078;15.536;2023-11-21T02:27:36;4.80;99.90
29687;DHT22;16599;47.078;15.536;2023-11-21T02:30:04;4.80;99.90
29687;DHT22;16599;47.078;15.536;2023-11-21T02:32:31;4.80;99.90
29687;DHT22;16599;47.078;15.536;2023-11-21T02:34:58;4.80;99.90
29687;DHT22;16599;47.078;15.536;2023-11-21T02:37:27;4.80;99.90
29687;DHT22;16599;47.078;15.536;2023-11-21T02:39:54;4.80;99.90
29687;DHT22;16599;47.078;15.536;2023-11-21T02:42:21;4.90;99.90
29687;DHT22;16599;47.078;15.536;2023-11-21T02:44:48;4.90;99.90
29687;DHT22;16599;47.078;15.536;2023-11-21T02:47:14;4.90;99.90
29687;DHT22;16599;47.078;15.536;2023-11-21T02:49:41;4.90;99.90
29687;DHT22;16599;47.078;15.536;2023-11-21T02:52:08;4.90;99.90
29687;DHT22;16599;47.078;15.536;2023-11-21T02:54:35;5.00;99.90
29687;DHT22;16599;47.078;15.536;2023-11-21T02:57:03;4.90;99.90
29687;DHT22;16599;47.078;15.536;2023-11-21T02:59:29;4.90;99.90
29687;DHT22;16599;47.078;15.536;2023-11-21T03:01:56;4.90;99.90
29687;DHT22;16599;47.078;15.536;2023-11-21T03:04:23;4.90;99.90
29687;DHT22;16599;47.078;15.536;2023-11-21T03:06:50;4.90;99.90
29687;DHT22;16599;47.078;15.536;2023-11-21T03:09:17;4.90;99.90
29687;DHT22;16599;47.078;15.536;2023-11-21T03:11:44;4.90;99.90
29687;DHT22;16599;47.078;15.536;2023-11-21T03:14:10;4.90;99.90
29687;DHT22;16599;47.078;15.536;2023-11-21T03:16:37;5.00;99.90
29687;DHT22;16599;47.078;15.536;2023-11-21T03:19:05;5.10;99.90
29687;DHT22;16599;47.078;15.536;2023-11-21T03:21:31;5.00;99.90
29687;DHT22;16599;47.078;15.536;2023-11-21T03:23:58;5.10;99.90
29687;DHT22;16599;47.078;15.536;2023-11-21T03:26:26;5.10;99.90
29687;DHT22;16599;47.078;15.536;2023-11-21T03:28:53;5.10;99.90
29687;DHT22;16599;47.078;15.536;2023-11-21T03:31:20;5.10;99.90
29687;DHT22;16599;47.078;15.536;2023-11-21T03:33:47;5.10;99.90
29687;DHT22;16599;47.078;15.536;2023-11-21T03:36:14;5.00;99.90
29687;DHT22;16599;47.078;15.536;2023-11-21T03:38:41;5.00;99.90
29687;DHT22;16599;47.078;15.536;2023-11-21T03:41:08;5.10;99.90
29687;DHT22;16599;47.078;15.536;2023-11-21T03:43:37;5.10;99.90
29687;DHT22;16599;47.078;15.536;2023-11-21T03:46:04;5.10;99.90
29687;DHT22;16599;47.078;15.536;2023-11-21T03:48:30;5.10;99.90
29687;DHT22;16599;47.078;15.536;2023-11-21T03:50:58;5.00;99.90
29687;DHT22;16599;47.078;15.536;2023-11-21T03:53:25;5.00;99.90
29687;DHT22;16599;47.078;15.536;2023-11-21T03:55:52;5.00;99.90
29687;DHT22;16599;47.078;15.536;2023-11-21T03:58:19;5.00;99.90
29687;DHT22;16599;47.078;15.536;2023-11-21T04:00:46;5.10;99.90
29687;DHT22;16599;47.078;15.536;2023-11-21T04:03:14;5.10;99.90
29687;DHT22;16599;47.078;15.536;2023-11-21T04:05:41;5.10;99.90
29687;DHT22;16599;47.078;15.536;2023-11-21T04:08:07;5.10;99.90
29687;DHT22;16599;47.078;15.536;2023-11-21T04:10:34;5.10;99.90
29687;DHT22;16599;47.078;15.536;2023-11-21T04:13:01;5.20;99.90
29687;DHT22;16599;47.078;15.536;2023-11-21T04:15:28;5.20;99.90
29687;DHT22;16599;47.078;15.536;2023-11-21T04:17:55;5.20;99.90
29687;DHT22;16599;47.078;15.536;2023-11-21T04:20:23;5.20;99.90
29687;DHT22;16599;47.078;15.536;2023-11-21T04:22:50;5.20;99.90
29687;DHT22;16599;47.078;15.536;2023-11-21T04:25:17;5.30;99.90
29687;DHT22;16599;47.078;15.536;2023-11-21T04:27:44;5.30;99.90
29687;DHT22;16599;47.078;15.536;2023-11-21T04:30:12;5.30;99.90
29687;DHT22;16599;47.078;15.536;2023-11-21T04:32:39;5.30;99.90
29687;DHT22;16599;47.078;15.536;2023-11-21T04:35:06;5.20;99.90
29687;DHT22;16599;47.078;15.536;2023-11-21T04:37:32;5.20;99.90
29687;DHT22;16599;47.078;15.536;2023-11-21T04:39:59;5.30;99.90
29687;DHT22;16599;47.078;15.536;2023-11-21T04:42:26;5.20;99.90
29687;DHT22;16599;47.078;15.536;2023-11-21T04:44:53;5.20;99.90
29687;DHT22;16599;47.078;15.536;2023-11-21T04:47:20;5.30;99.90
29687;DHT22;16599;47.078;15.536;2023-11-21T04:49:47;5.30;99.90
29687;DHT22;16599;47.078;15.536;2023-11-21T04:52:14;5.40;99.90
29687;DHT22;16599;47.078;15.536;2023-11-21T04:54:41;5.20;99.90
29687;DHT22;16599;47.078;15.536;2023-11-21T04:57:07;5.20;99.90
29687;DHT22;16599;47.078;15.536;2023-11-21T04:59:34;5.30;99.90
29687;DHT22;16599;47.078;15.536;2023-11-21T05:02:01;5.30;99.90
29687;DHT22;16599;47.078;15.536;2023-11-21T05:04:29;5.30;99.90
29687;DHT22;16599;47.078;15.536;2023-11-21T05:06:56;5.30;99.90
29687;DHT22;16599;47.078;15.536;2023-11-21T05:09:23;5.30;99.90
29687;DHT22;16599;47.078;15.536;2023-11-21T05:11:50;5.40;99.90
29687;DHT22;16599;47.078;15.536;2023-11-21T05:14:16;5.40;99.90
29687;DHT22;16599;47.078;15.536;2023-11-21T05:16:45;5.40;99.90
29687;DHT22;16599;47.078;15.536;2023-11-21T05:19:12;5.40;99.90
29687;DHT22;16599;47.078;15.536;2023-11-21T05:21:39;5.20;99.90
29687;DHT22;16599;47.078;15.536;2023-11-21T05:24:06;5.20;99.90
29687;DHT22;16599;47.078;15.536;2023-11-21T05:26:33;5.20;99.90
29687;DHT22;16599;47.078;15.536;2023-11-21T05:29:00;5.20;99.90
29687;DHT22;16599;47.078;15.536;2023-11-21T05:31:27;5.20;99.90
29687;DHT22;16599;47.078;15.536;2023-11-21T05:33:54;5.20;99.90
29687;DHT22;16599;47.078;15.536;2023-11-21T05:36:20;5.30;99.90
29687;DHT22;16599;47.078;15.536;2023-11-21T05:38:47;5.30;99.90
29687;DHT22;16599;47.078;15.536;2023-11-21T05:41:14;5.40;99.90
29687;DHT22;16599;47.078;15.536;2023-11-21T05:43:41;5.40;99.90
29687;DHT22;16599;47.078;15.536;2023-11-21T05:46:08;5.50;99.90
29687;DHT22;16599;47.078;15.536;2023-11-21T05:48:35;5.60;99.90
29687;DHT22;16599;47.078;15.536;2023-11-21T05:51:04;5.50;99.90
29687;DHT22;16599;47.078;15.536;2023-11-21T05:53:31;5.30;99.90
29687;DHT22;16599;47.078;15.536;2023-11-21T05:55:58;5.40;99.90
29687;DHT22;16599;47.078;15.536;2023-11-21T05:58:25;5.40;99.90
29687;DHT22;16599;47.078;15.536;2023-11-21T06:00:51;5.40;99.90
29687;DHT22;16599;47.078;15.536;2023-11-21T06:03:18;5.50;99.90
29687;DHT22;16599;47.078;15.536;2023-11-21T06:05:45;5.60;99.90
29687;DHT22;16599;47.078;15.536;2023-11-21T06:08:12;5.60;99.90
29687;DHT22;16599;47.078;15.536;2023-11-21T06:10:39;5.60;99.90
29687;DHT22;16599;47.078;15.536;2023-11-21T06:13:06;5.50;99.90
29687;DHT22;16599;47.078;15.536;2023-11-21T06:15:33;5.50;99.90
29687;DHT22;16599;47.078;15.536;2023-11-21T06:18:01;5.60;99.90
29687;DHT22;16599;47.078;15.536;2023-11-21T06:20:27;5.60;99.90
29687;DHT22;16599;47.078;15.536;2023-11-21T06:22:54;5.60;99.90
29687;DHT22;16599;47.078;15.536;2023-11-21T06:25:21;5.60;99.90
29687;DHT22;16599;47.078;15.536;2023-11-21T06:27:49;5.60;99.90
29687;DHT22;16599;47.078;15.536;2023-11-21T06:30:16;5.60;99.90
29687;DHT22;16599;47.078;15.536;2023-11-21T06:32:46;5.50;99.90
29687;DHT22;16599;47.078;15.536;2023-11-21T06:38:57;5.60;99.90
29687;DHT22;16599;47.078;15.536;2023-11-21T06:44:52;5.70;99.90
29687;DHT22;16599;47.078;15.536;2023-11-21T06:47:24;5.70;99.90
29687;DHT22;16599;47.078;15.536;2023-11-21T06:49:52;5.70;99.90
29687;DHT22;16599;47.078;15.536;2023-11-21T06:52:19;5.80;99.90
29687;DHT22;16599;47.078;15.536;2023-11-21T07:04:39;5.90;99.90
29687;DHT22;16599;47.078;15.536;2023-11-21T07:07:06;5.90;99.90
29687;DHT22;16599;47.078;15.536;2023-11-21T07:09:33;5.90;99.90
29687;DHT22;16599;47.078;15.536;2023-11-21T07:12:00;5.90;99.90
29687;DHT22;16599;47.078;15.536;2023-11-21T07:17:57;6.10;99.90
29687;DHT22;16599;47.078;15.536;2023-11-21T07:23:52;6.10;99.90
29687;DHT22;16599;47.078;15.536;2023-11-21T07:26:19;6.00;99.90
29687;DHT22;16599;47.078;15.536;2023-11-21T07:28:47;5.90;99.90
29687;DHT22;16599;47.078;15.536;2023-11-21T07:38:10;6.20;99.90
29687;DHT22;16599;47.078;15.536;2023-11-21T07:47:45;6.30;99.90
29687;DHT22;16599;47.078;15.536;2023-11-21T07:57:05;6.40;99.90
29687;DHT22;16599;47.078;15.536;2023-11-21T08:02:57;6.70;99.90
29687;DHT22;16599;47.078;15.536;2023-11-21T08:05:27;6.80;99.90
29687;DHT22;16599;47.078;15.536;2023-11-21T08:08:03;6.90;99.90
29687;DHT22;16599;47.078;15.536;2023-11-21T08:10:30;6.90;99.90
29687;DHT22;16599;47.078;15.536;2023-11-21T08:12:57;6.90;99.90
29687;DHT22;16599;47.078;15.536;2023-11-21T08:15:26;7.00;99.90
29687;DHT22;16599;47.078;15.536;2023-11-21T08:31:33;7.20;99.90
29687;DHT22;16599;47.078;15.536;2023-11-21T08:37:30;7.30;99.90
29687;DHT22;16599;47.078;15.536;2023-11-21T08:39:59;7.30;99.90
29687;DHT22;16599;47.078;15.536;2023-11-21T08:42:26;7.40;99.90
29687;DHT22;16599;47.078;15.536;2023-11-21T08:44:56;7.40;99.90
29687;DHT22;16599;47.078;15.536;2023-11-21T08:47:24;7.40;99.90
29687;DHT22;16599;47.078;15.536;2023-11-21T08:49:52;7.40;99.90
29687;DHT22;16599;47.078;15.536;2023-11-21T08:52:19;7.50;99.90
29687;DHT22;16599;47.078;15.536;2023-11-21T08:54:49;7.60;99.90
29687;DHT22;16599;47.078;15.536;2023-11-21T08:57:22;7.70;99.90
29687;DHT22;16599;47.078;15.536;2023-11-21T08:59:49;7.70;99.90
29687;DHT22;16599;47.078;15.536;2023-11-21T09:02:22;7.70;99.90
29687;DHT22;16599;47.078;15.536;2023-11-21T09:04:51;7.70;99.90
29687;DHT22;16599;47.078;15.536;2023-11-21T09:07:19;7.80;99.90
29687;DHT22;16599;47.078;15.536;2023-11-21T09:09:49;7.90;99.90
29687;DHT22;16599;47.078;15.536;2023-11-21T09:12:17;8.00;99.90
29687;DHT22;16599;47.078;15.536;2023-11-21T09:14:46;8.00;99.90
29687;DHT22;16599;47.078;15.536;2023-11-21T09:17:13;8.10;99.90
29687;DHT22;16599;47.078;15.536;2023-11-21T09:19:40;8.20;99.90
29687;DHT22;16599;47.078;15.536;2023-11-21T09:22:07;8.20;99.90
29687;DHT22;16599;47.078;15.536;2023-11-21T09:24:34;8.10;99.90
29687;DHT22;16599;47.078;15.536;2023-11-21T09:27:03;8.10;99.90
29687;DHT22;16599;47.078;15.536;2023-11-21T09:29:31;8.00;99.90
29687;DHT22;16599;47.078;15.536;2023-11-21T09:31:58;8.00;99.90
29687;DHT22;16599;47.078;15.536;2023-11-21T09:34:28;8.00;99.90
29687;DHT22;16599;47.078;15.536;2023-11-21T09:36:55;8.00;99.90
29687;DHT22;16599;47.078;15.536;2023-11-21T09:39:22;8.00;99.90
29687;DHT22;16599;47.078;15.536;2023-11-21T09:41:49;8.00;99.90
29687;DHT22;16599;47.078;15.536;2023-11-21T09:44:22;8.00;99.90
29687;DHT22;16599;47.078;15.536;2023-11-21T09:46:50;8.00;99.90
29687;DHT22;16599;47.078;15.536;2023-11-21T09:49:22;8.10;99.90
29687;DHT22;16599;47.078;15.536;2023-11-21T09:51:51;8.10;99.90
29687;DHT22;16599;47.078;15.536;2023-11-21T09:54:20;8.10;99.90
29687;DHT22;16599;47.078;15.536;2023-11-21T09:59:40;8.10;99.90
29687;DHT22;16599;47.078;15.536;2023-11-21T10:02:08;8.10;99.90
29687;DHT22;16599;47.078;15.536;2023-11-21T10:04:39;8.20;99.90
29687;DHT22;16599;47.078;15.536;2023-11-21T10:07:06;8.20;99.90
29687;DHT22;16599;47.078;15.536;2023-11-21T10:09:36;8.20;99.90
29687;DHT22;16599;47.078;15.536;2023-11-21T10:12:04;8.10;99.90
29687;DHT22;16599;47.078;15.536;2023-11-21T10:14:35;8.00;99.90
29687;DHT22;16599;47.078;15.536;2023-11-21T10:17:03;8.00;99.90
29687;DHT22;16599;47.078;15.536;2023-11-21T10:19:32;8.00;99.90
29687;DHT22;16599;47.078;15.536;2023-11-21T10:21:59;8.00;99.90
29687;DHT22;16599;47.078;15.536;2023-11-21T10:24:28;8.00;99.90
29687;DHT22;16599;47.078;15.536;2023-11-21T10:27:07;8.00;99.90
29687;DHT22;16599;47.078;15.536;2023-11-21T10:29:34;8.00;99.90
29687;DHT22;16599;47.078;15.536;2023-11-21T10:32:02;8.00;99.90
29687;DHT22;16599;47.078;15.536;2023-11-21T10:34:30;8.00;99.90
29687;DHT22;16599;47.078;15.536;2023-11-21T10:36:57;8.00;99.90
29687;DHT22;16599;47.078;15.536;2023-11-21T10:39:25;8.10;99.90
29687;DHT22;16599;47.078;15.536;2023-11-21T10:41:57;8.10;99.90
29687;DHT22;16599;47.078;15.536;2023-11-21T10:44:24;8.10;99.90
29687;DHT22;16599;47.078;15.536;2023-11-21T10:46:52;8.10;99.90
29687;DHT22;16599;47.078;15.536;2023-11-21T10:49:23;8.10;99.90
29687;DHT22;16599;47.078;15.536;2023-11-21T10:51:52;8.10;99.90
29687;DHT22;16599;47.078;15.536;2023-11-21T10:54:20;8.20;99.90
29687;DHT22;16599;47.078;15.536;2023-11-21T10:56:51;8.20;99.90
29687;DHT22;16599;47.078;15.536;2023-11-21T10:59:19;8.20;99.90
29687;DHT22;16599;47.078;15.536;2023-11-21T11:01:51;8.20;99.90
29687;DHT22;16599;47.078;15.536;2023-11-21T11:04:19;8.20;99.90
29687;DHT22;16599;47.078;15.536;2023-11-21T11:06:50;8.20;99.90
29687;DHT22;16599;47.078;15.536;2023-11-21T11:09:17;8.20;99.90
29687;DHT22;16599;47.078;15.536;2023-11-21T11:11:45;8.30;99.90
29687;DHT22;16599;47.078;15.536;2023-11-21T11:14:12;8.20;99.90
29687;DHT22;16599;47.078;15.536;2023-11-21T11:16:40;8.30;99.90
29687;DHT22;16599;47.078;15.536;2023-11-21T11:19:11;8.30;99.90
29687;DHT22;16599;47.078;15.536;2023-11-21T11:24:31;8.30;99.90
29687;DHT22;16599;47.078;15.536;2023-11-21T11:27:44;8.30;99.90
29687;DHT22;16599;47.078;15.536;2023-11-21T11:32:29;8.40;99.90
29687;DHT22;16599;47.078;15.536;2023-11-21T11:35:10;8.50;99.90
29687;DHT22;16599;47.078;15.536;2023-11-21T11:37:41;8.40;99.90
29687;DHT22;16599;47.078;15.536;2023-11-21T11:40:08;8.40;99.90
29687;DHT22;16599;47.078;15.536;2023-11-21T11:42:37;8.40;99.90
29687;DHT22;16599;47.078;15.536;2023-11-21T11:45:19;8.40;99.90
29687;DHT22;16599;47.078;15.536;2023-11-21T11:47:47;8.40;99.90
29687;DHT22;16599;47.078;15.536;2023-11-21T11:50:14;8.40;99.90
29687;DHT22;16599;47.078;15.536;2023-11-21T11:52:44;8.40;99.90
29687;DHT22;16599;47.078;15.536;2023-11-21T11:55:12;8.40;99.90
29687;DHT22;16599;47.078;15.536;2023-11-21T11:57:49;8.40;99.90
29687;DHT22;16599;47.078;15.536;2023-11-21T12:00:19;8.40;99.90
29687;DHT22;16599;47.078;15.536;2023-11-21T12:02:59;8.40;99.90
29687;DHT22;16599;47.078;15.536;2023-11-21T12:05:29;8.40;99.90
29687;DHT22;16599;47.078;15.536;2023-11-21T12:08:02;8.50;99.90
29687;DHT22;16599;47.078;15.536;2023-11-21T12:10:31;8.40;99.90
29687;DHT22;16599;47.078;15.536;2023-11-21T12:12:59;8.50;99.90
29687;DHT22;16599;47.078;15.536;2023-11-21T12:15:27;8.50;99.90
29687;DHT22;16599;47.078;15.536;2023-11-21T12:17:57;8.50;99.90
29687;DHT22;16599;47.078;15.536;2023-11-21T12:20:26;8.50;99.90
29687;DHT22;16599;47.078;15.536;2023-11-21T12:22:54;8.50;99.90
29687;DHT22;16599;47.078;15.536;2023-11-21T12:25:22;8.60;99.90
29687;DHT22;16599;47.078;15.536;2023-11-21T12:27:50;8.60;99.90
29687;DHT22;16599;47.078;15.536;2023-11-21T12:30:21;8.60;99.90
29687;DHT22;16599;47.078;15.536;2023-11-21T12:32:49;8.60;99.90
29687;DHT22;16599;47.078;15.536;2023-11-21T12:35:18;8.60;99.90
29687;DHT22;16599;47.078;15.536;2023-11-21T12:37:48;8.50;99.90
29687;DHT22;16599;47.078;15.536;2023-11-21T12:40:15;8.50;99.90
29687;DHT22;16599;47.078;15.536;2023-11-21T12:42:44;8.60;99.90
29687;DHT22;16599;47.078;15.536;2023-11-21T12:47:44;8.50;99.90
29687;DHT22;16599;47.078;15.536;2023-11-21T12:50:11;8.50;99.90
29687;DHT22;16599;47.078;15.536;2023-11-21T12:52:41;8.50;99.90
29687;DHT22;16599;47.078;15.536;2023-11-21T12:55:08;8.50;99.90
29687;DHT22;16599;47.078;15.536;2023-11-21T12:57:36;8.50;99.90
29687;DHT22;16599;47.078;15.536;2023-11-21T13:00:04;8.50;99.90
29687;DHT22;16599;47.078;15.536;2023-11-21T13:02:42;8.60;99.90
29687;DHT22;16599;47.078;15.536;2023-11-21T13:05:09;8.50;99.90
29687;DHT22;16599;47.078;15.536;2023-11-21T13:07:48;8.50;99.90
29687;DHT22;16599;47.078;15.536;2023-11-21T13:10:16;8.50;99.90
29687;DHT22;16599;47.078;15.536;2023-11-21T13:12:50;8.50;99.90
29687;DHT22;16599;47.078;15.536;2023-11-21T13:15:40;8.40;99.90
29687;DHT22;16599;47.078;15.536;2023-11-21T13:18:10;8.40;99.90
29687;DHT22;16599;47.078;15.536;2023-11-21T13:20:37;8.40;99.90
29687;DHT22;16599;47.078;15.536;2023-11-21T13:23:07;8.40;99.90
29687;DHT22;16599;47.078;15.536;2023-11-21T13:25:34;8.40;99.90
29687;DHT22;16599;47.078;15.536;2023-11-21T13:28:03;8.40;99.90
29687;DHT22;16599;47.078;15.536;2023-11-21T13:30:30;8.40;99.90
29687;DHT22;16599;47.078;15.536;2023-11-21T13:33:01;8.40;99.90
29687;DHT22;16599;47.078;15.536;2023-11-21T13:35:28;8.40;99.90
29687;DHT22;16599;47.078;15.536;2023-11-21T13:38:18;8.40;99.90
29687;DHT22;16599;47.078;15.536;2023-11-21T13:40:49;8.40;99.90
29687;DHT22;16599;47.078;15.536;2023-11-21T13:43:20;8.50;99.90
29687;DHT22;16599;47.078;15.536;2023-11-21T13:45:49;8.50;99.90
29687;DHT22;16599;47.078;15.536;2023-11-21T13:51:36;8.50;99.90
29687;DHT22;16599;47.078;15.536;2023-11-21T13:54:11;8.50;99.90
29687;DHT22;16599;47.078;15.536;2023-11-21T13:56:38;8.50;99.90
29687;DHT22;16599;47.078;15.536;2023-11-21T13:59:06;8.40;99.90
29687;DHT22;16599;47.078;15.536;2023-11-21T14:15:36;8.30;99.90
29687;DHT22;16599;47.078;15.536;2023-11-21T14:22:13;8.10;99.90
29687;DHT22;16599;47.078;15.536;2023-11-21T14:24:40;8.00;99.90
29687;DHT22;16599;47.078;15.536;2023-11-21T14:27:13;7.80;99.90
29687;DHT22;16599;47.078;15.536;2023-11-21T14:29:41;7.60;99.90
29687;DHT22;16599;47.078;15.536;2023-11-21T14:32:11;7.60;99.90
29687;DHT22;16599;47.078;15.536;2023-11-21T14:34:38;7.60;99.90
29687;DHT22;16599;47.078;15.536;2023-11-21T14:37:07;7.60;99.90
29687;DHT22;16599;47.078;15.536;2023-11-21T14:39:34;7.60;99.90
29687;DHT22;16599;47.078;15.536;2023-11-21T14:42:07;7.30;99.90
29687;DHT22;16599;47.078;15.536;2023-11-21T14:44:34;7.00;99.90
29687;DHT22;16599;47.078;15.536;2023-11-21T14:47:05;7.00;99.90
29687;DHT22;16599;47.078;15.536;2023-11-21T14:49:39;6.90;99.90
29687;DHT22;16599;47.078;15.536;2023-11-21T14:52:19;6.90;99.90
29687;DHT22;16599;47.078;15.536;2023-11-21T14:58:26;6.20;99.90
29687;DHT22;16599;47.078;15.536;2023-11-21T15:00:56;6.10;99.90
29687;DHT22;16599;47.078;15.536;2023-11-21T15:03:28;6.10;99.90
29687;DHT22;16599;47.078;15.536;2023-11-21T15:06:02;6.20;99.90
29687;DHT22;16599;47.078;15.536;2023-11-21T15:08:50;5.90;99.90
29687;DHT22;16599;47.078;15.536;2023-11-21T15:11:39;6.00;99.90
29687;DHT22;16599;47.078;15.536;2023-11-21T15:14:07;6.10;99.90
29687;DHT22;16599;47.078;15.536;2023-11-21T15:16:49;6.10;99.90
29687;DHT22;16599;47.078;15.536;2023-11-21T15:19:20;5.70;99.90
29687;DHT22;16599;47.078;15.536;2023-11-21T15:21:52;5.60;99.90
29687;DHT22;16599;47.078;15.536;2023-11-21T15:24:22;5.70;99.90
29687;DHT22;16599;47.078;15.536;2023-11-21T15:26:50;5.80;99.90
29687;DHT22;16599;47.078;15.536;2023-11-21T15:29:17;5.90;99.90
29687;DHT22;16599;47.078;15.536;2023-11-21T15:31:44;5.80;99.90
29687;DHT22;16599;47.078;15.536;2023-11-21T15:34:15;5.90;99.90
29687;DHT22;16599;47.078;15.536;2023-11-21T15:50:03;6.20;99.90
29687;DHT22;16599;47.078;15.536;2023-11-21T15:52:33;6.10;99.90
29687;DHT22;16599;47.078;15.536;2023-11-21T15:55:00;6.10;99.90
29687;DHT22;16599;47.078;15.536;2023-11-21T15:57:27;6.10;99.90
29687;DHT22;16599;47.078;15.536;2023-11-21T15:59:53;6.10;99.90
29687;DHT22;16599;47.078;15.536;2023-11-21T16:02:20;6.10;99.90
29687;DHT22;16599;47.078;15.536;2023-11-21T16:04:47;6.10;99.90
29687;DHT22;16599;47.078;15.536;2023-11-21T16:07:14;6.10;99.90
29687;DHT22;16599;47.078;15.536;2023-11-21T16:09:41;6.10;99.90
29687;DHT22;16599;47.078;15.536;2023-11-21T16:12:10;6.10;99.90
29687;DHT22;16599;47.078;15.536;2023-11-21T16:14:38;6.00;99.90
29687;DHT22;16599;47.078;15.536;2023-11-21T16:17:08;5.90;99.90
29687;DHT22;16599;47.078;15.536;2023-11-21T16:19:37;5.90;99.90
29687;DHT22;16599;47.078;15.536;2023-11-21T16:22:04;6.00;99.90
29687;DHT22;16599;47.078;15.536;2023-11-21T16:24:31;6.10;99.90
29687;DHT22;16599;47.078;15.536;2023-11-21T16:27:00;6.20;99.90
29687;DHT22;16599;47.078;15.536;2023-11-21T16:29:26;6.20;99.90
29687;DHT22;16599;47.078;15.536;2023-11-21T16:31:53;6.10;99.90
29687;DHT22;16599;47.078;15.536;2023-11-21T16:34:34;6.00;99.90
29687;DHT22;16599;47.078;15.536;2023-11-21T16:37:02;6.00;99.90
29687;DHT22;16599;47.078;15.536;2023-11-21T16:39:37;5.70;99.90
29687;DHT22;16599;47.078;15.536;2023-11-21T16:42:08;5.50;99.90
29687;DHT22;16599;47.078;15.536;2023-11-21T16:44:34;5.50;99.90
29687;DHT22;16599;47.078;15.536;2023-11-21T16:47:02;5.40;99.90
29687;DHT22;16599;47.078;15.536;2023-11-21T16:49:32;5.10;99.90
29687;DHT22;16599;47.078;15.536;2023-11-21T16:52:03;5.10;99.90
29687;DHT22;16599;47.078;15.536;2023-11-21T16:57:36;5.00;99.90
29687;DHT22;16599;47.078;15.536;2023-11-21T17:00:23;5.30;99.90
29687;DHT22;16599;47.078;15.536;2023-11-21T17:02:50;5.00;99.90
29687;DHT22;16599;47.078;15.536;2023-11-21T17:06:01;4.80;99.90
29687;DHT22;16599;47.078;15.536;2023-11-21T17:08:30;5.10;99.90
29687;DHT22;16599;47.078;15.536;2023-11-21T17:10:58;4.90;99.90
29687;DHT22;16599;47.078;15.536;2023-11-21T17:13:25;4.70;99.90
29687;DHT22;16599;47.078;15.536;2023-11-21T17:15:53;4.70;99.90
29687;DHT22;16599;47.078;15.536;2023-11-21T17:18:21;4.80;99.90
29687;DHT22;16599;47.078;15.536;2023-11-21T17:20:48;4.70;99.90
29687;DHT22;16599;47.078;15.536;2023-11-21T17:23:15;4.90;99.90
29687;DHT22;16599;47.078;15.536;2023-11-21T17:25:43;5.00;99.90
29687;DHT22;16599;47.078;15.536;2023-11-21T17:28:16;4.80;99.90
29687;DHT22;16599;47.078;15.536;2023-11-21T17:30:43;4.90;99.90
29687;DHT22;16599;47.078;15.536;2023-11-21T17:33:11;4.90;99.90
29687;DHT22;16599;47.078;15.536;2023-11-21T17:35:44;4.90;99.90